Monrovia, Indiana
Current Conditions -  °F | °C
As of 5:54 AM on Monday 22 Dec 2014 (Local Time) from KIND Reporting Station
Overcast Overcast  
Wind Chill: 24°   Ceiling: 4500
Heat Index: 30°   Visibility: 7mi
Dew Point: 26°   Wind: 6mph
Humidity: 85%   Direction: 90°E
Pressure: 29.96"   Gusts: NA
Location:  39.58°N, 86.48°W
Report Text: KIND 221054Z 09005KT 7SM SCT035 OVC045 M01/M03 A2996 RMK AO2 SLP153 T10111033
Loading
Personal Weather Stations






























Interactive Weather Map New forecast layout! Learn more

10-Day Weather Forecast

Advertisements
Track Severe Weather on mobile